Time;durP1;ratioP1;P1;durP2;ratioP2;P2;SDS_P1;SDS_P2;PMS_P1;PMS_P2;Temp;Humidity;BMP_temperature;BMP_pressure;BME280_temperature;BME280_humidity;BME280_pressure;Samples;Min_cycle;Max_cycle;Signal;HPM_P1;HPM_P2
2022/06/04 00:00:42;;;;;;;12.63;6.97;;;10.90;99.90;;;;;;5016675;28;20095;-87
2022/06/04 00:03:09;;;;;;;13.52;6.78;;;11.00;99.90;;;;;;5032888;28;20050;-88
2022/06/04 00:05:43;;;;;;;14.98;6.97;;;11.10;99.90;;;;;;5033077;28;20087;-88
2022/06/04 00:08:09;;;;;;;11.15;6.53;;;10.90;99.90;;;;;;5016490;28;20085;-88
2022/06/04 00:16:11;;;;;;;13.95;6.32;;;11.20;99.90;;;;;;5032814;28;20115;-88
2022/06/04 00:18:40;;;;;;;16.30;6.78;;;11.20;99.90;;;;;;5016005;28;20048;-88
2022/06/04 00:21:07;;;;;;;10.75;6.55;;;10.70;99.90;;;;;;5032444;28;20077;-89
2022/06/04 00:23:33;;;;;;;12.73;6.75;;;10.70;99.90;;;;;;5015980;28;20503;-88
2022/06/04 00:26:01;;;;;;;13.90;6.97;;;10.70;99.90;;;;;;5016461;28;20042;-89
2022/06/04 00:28:27;;;;;;;10.55;6.50;;;10.70;99.90;;;;;;5016275;28;20045;-90
2022/06/04 00:30:55;;;;;;;11.13;6.38;;;10.60;99.90;;;;;;5032631;28;20477;-88
2022/06/04 00:33:21;;;;;;;13.05;6.55;;;11.30;99.90;;;;;;5016216;28;20049;-89
2022/06/04 00:35:51;;;;;;;13.15;6.72;;;10.70;99.90;;;;;;5016148;28;20435;-88
2022/06/04 00:38:20;;;;;;;13.55;7.00;;;11.20;99.90;;;;;;5032336;28;20050;-88
2022/06/04 00:41:11;;;;;;;14.45;7.30;;;11.00;99.90;;;;;;5015989;28;20507;-89
2022/06/04 00:44:05;;;;;;;12.43;7.50;;;10.70;99.90;;;;;;5015622;28;20037;-88
2022/06/04 00:46:30;;;;;;;15.48;7.78;;;10.60;99.90;;;;;;5015890;28;20049;-88
2022/06/04 00:48:59;;;;;;;18.80;8.75;;;10.70;99.90;;;;;;5032295;28;20057;-88
2022/06/04 00:51:25;;;;;;;15.13;8.50;;;11.10;99.90;;;;;;5015942;28;20144;-88
2022/06/04 00:53:51;;;;;;;15.13;8.27;;;10.50;99.90;;;;;;5015899;28;20046;-88
2022/06/04 00:56:42;;;;;;;17.48;8.48;;;10.60;99.90;;;;;;5015892;28;20099;-88
2022/06/04 00:59:35;;;;;;;16.92;8.65;;;10.50;99.90;;;;;;5032192;28;20049;-88
2022/06/04 01:02:03;;;;;;;19.02;8.35;;;10.50;99.90;;;;;;5016277;28;20376;-88
2022/06/04 01:05:19;;;;;;;18.15;8.63;;;10.50;99.90;;;;;;5015639;28;20140;-88
2022/06/04 01:07:57;;;;;;;19.50;8.52;;;10.50;99.90;;;;;;4940572;28;20434;-88
2022/06/04 01:10:42;;;;;;;14.70;8.00;;;10.50;99.90;;;;;;5005922;28;20053;-88
2022/06/04 01:13:23;;;;;;;16.02;8.23;;;10.50;99.90;;;;;;5015715;28;20046;-88
2022/06/04 01:16:22;;;;;;;18.63;8.70;;;10.50;99.90;;;;;;5015464;28;20084;-88
2022/06/04 01:19:26;;;;;;;20.15;9.27;;;10.50;99.90;;;;;;5031926;28;20053;-86
2022/06/04 01:22:15;;;;;;;15.35;8.35;;;10.40;99.90;;;;;;4939991;28;20110;-89
2022/06/04 01:25:01;;;;;;;19.73;8.27;;;10.50;99.90;;;;;;4972334;28;20066;-88
2022/06/04 01:27:36;;;;;;;13.95;7.82;;;10.50;99.90;;;;;;4960056;28;20082;-88
2022/06/04 01:30:06;;;;;;;16.92;8.38;;;11.00;99.90;;;;;;4959876;28;20109;-88
2022/06/04 01:33:11;;;;;;;22.02;8.50;;;10.50;99.90;;;;;;4943671;28;20402;-88
2022/06/04 01:35:52;;;;;;;15.05;8.05;;;10.40;99.90;;;;;;4963281;28;20046;-88
2022/06/04 01:38:24;;;;;;;16.42;8.60;;;10.40;99.90;;;;;;4954270;28;20042;-88
2022/06/04 01:41:08;;;;;;;19.08;8.48;;;10.50;99.90;;;;;;4968806;28;20051;-88
2022/06/04 01:43:52;;;;;;;16.10;8.40;;;10.40;99.90;;;;;;4968481;28;20047;-88
2022/06/04 01:46:40;;;;;;;15.85;8.45;;;10.40;99.90;;;;;;4966384;28;20055;-88
2022/06/04 01:49:33;;;;;;;18.40;8.38;;;10.50;99.90;;;;;;4959523;28;20047;-88
2022/06/04 01:52:04;;;;;;;20.33;8.73;;;10.40;99.90;;;;;;4959684;28;20502;-88
2022/06/04 01:54:36;;;;;;;17.90;8.02;;;10.30;99.90;;;;;;4959447;28;20066;-88
2022/06/04 01:57:08;;;;;;;19.63;8.07;;;10.50;99.90;;;;;;4943505;28;20137;-88
2022/06/04 01:59:36;;;;;;;18.50;8.82;;;10.50;99.90;;;;;;5010639;28;20432;-88
2022/06/04 02:02:06;;;;;;;19.60;8.48;;;10.30;99.90;;;;;;5035394;28;20432;-88
2022/06/04 02:04:37;;;;;;;15.80;8.15;;;10.40;99.90;;;;;;5035030;28;20037;-88
2022/06/04 02:07:30;;;;;;;14.73;7.63;;;10.20;99.90;;;;;;5035057;28;20056;-88
2022/06/04 02:10:03;;;;;;;16.48;8.07;;;10.50;99.90;;;;;;5034632;28;20042;-88
2022/06/04 02:12:33;;;;;;;16.00;8.15;;;10.60;99.90;;;;;;5018587;28;20049;-88
2022/06/04 02:15:00;;;;;;;12.27;7.32;;;10.20;99.90;;;;;;5018280;28;20041;-88
2022/06/04 02:17:27;;;;;;;17.52;8.15;;;10.50;99.90;;;;;;5018349;28;20038;-88
2022/06/04 02:19:58;;;;;;;15.25;7.93;;;10.60;99.90;;;;;;5018199;28;20033;-88
2022/06/04 02:22:24;;;;;;;20.02;7.78;;;10.10;99.90;;;;;;5034524;28;20057;-88
2022/06/04 02:24:49;;;;;;;14.73;7.20;;;10.40;99.90;;;;;;5017915;28;20050;-88
2022/06/04 02:27:15;;;;;;;13.93;7.60;;;10.00;99.90;;;;;;5034733;28;20045;-88
2022/06/04 02:29:42;;;;;;;15.70;8.00;;;10.70;99.90;;;;;;5034453;28;20392;-87
2022/06/04 02:32:37;;;;;;;16.63;7.85;;;10.40;99.90;;;;;;5034489;28;20045;-88
2022/06/04 02:35:37;;;;;;;16.23;7.28;;;9.50;99.90;;;;;;4958406;28;20673;-88
2022/06/04 02:38:34;;;;;;;14.32;6.95;;;10.10;99.90;;;;;;4957746;28;20054;-87
2022/06/04 02:41:01;;;;;;;;;;;10.00;99.90;;;;;;4864666;29;20140;-88
2022/06/04 02:43:45;;;;;;;15.63;7.70;;;10.00;99.90;;;;;;4864493;29;19931;-88
2022/06/04 02:46:18;;;;;;;18.58;7.38;;;9.90;99.90;;;;;;4879945;29;20093;-88
2022/06/04 02:49:29;;;;;;;16.55;7.80;;;10.20;99.90;;;;;;4863959;29;20049;-88
2022/06/04 02:51:55;;;;;;;15.65;7.72;;;9.90;99.90;;;;;;4853967;29;20114;-88
2022/06/04 02:54:31;;;;;;;16.58;7.55;;;9.90;99.90;;;;;;4863949;29;20049;-88
2022/06/04 02:56:59;;;;;;;16.58;7.43;;;9.90;99.90;;;;;;4863975;29;20045;-88
2022/06/04 02:59:25;;;;;;;13.85;7.75;;;10.10;99.90;;;;;;4863883;29;20059;-88
2022/06/04 03:01:57;;;;;;;16.48;7.80;;;10.00;99.90;;;;;;4879505;29;20485;-89
2022/06/04 03:04:22;;;;;;;14.85;7.32;;;10.20;99.90;;;;;;4879147;29;20474;-88
2022/06/04 03:06:48;;;;;;;16.20;7.40;;;10.40;99.90;;;;;;4864444;29;20057;-87
2022/06/04 03:09:17;;;;;;;13.52;7.13;;;9.80;99.90;;;;;;4869010;29;20163;-88
2022/06/04 03:11:45;;;;;;;15.60;7.22;;;9.80;99.90;;;;;;4908093;29;20558;-88
2022/06/04 03:14:12;;;;;;;16.08;8.23;;;9.80;99.90;;;;;;4941287;29;20133;-87
2022/06/04 03:16:40;;;;;;;15.55;6.95;;;9.80;99.90;;;;;;4942316;29;20043;-88
2022/06/04 03:19:09;;;;;;;15.23;6.85;;;10.10;99.90;;;;;;5016459;28;20092;-88
2022/06/04 03:21:40;;;;;;;14.10;6.53;;;10.00;99.90;;;;;;5036095;28;20503;-88
2022/06/04 03:24:07;;;;;;;16.52;7.70;;;9.80;99.90;;;;;;5036319;28;20050;-88
2022/06/04 03:26:34;;;;;;;13.38;7.38;;;9.60;99.90;;;;;;5019967;28;20045;-88
2022/06/04 03:29:00;;;;;;;14.38;7.22;;;9.70;99.90;;;;;;5036425;28;20515;-88
2022/06/04 03:31:26;;;;;;;15.02;7.18;;;10.00;99.90;;;;;;5035976;28;20060;-88
2022/06/04 03:33:53;;;;;;;14.80;7.30;;;9.80;99.90;;;;;;5034768;28;20481;-88
2022/06/04 03:36:20;;;;;;;13.70;7.18;;;9.70;99.90;;;;;;5033460;28;20037;-88
2022/06/04 03:38:46;;;;;;;16.95;7.20;;;9.80;99.90;;;;;;5017346;28;20140;-88
2022/06/04 03:41:12;;;;;;;14.82;7.28;;;10.20;99.90;;;;;;5017093;28;20120;-88
2022/06/04 03:43:37;;;;;;;14.65;6.80;;;9.70;99.90;;;;;;5016829;28;20060;-89
2022/06/04 03:46:04;;;;;;;14.32;7.20;;;9.70;99.90;;;;;;5016844;28;20049;-88
2022/06/04 03:48:29;;;;;;;14.05;7.43;;;10.20;99.90;;;;;;5016422;28;20049;-88
2022/06/04 03:50:55;;;;;;;18.50;7.88;;;9.60;99.90;;;;;;5017162;28;20547;-88
2022/06/04 03:53:21;;;;;;;14.35;7.38;;;9.90;99.90;;;;;;5034201;28;20550;-88
2022/06/04 03:55:46;;;;;;;16.35;7.30;;;10.00;99.90;;;;;;5016653;28;20046;-88
2022/06/04 03:58:12;;;;;;;16.38;7.20;;;9.60;99.90;;;;;;5016777;28;20075;-88
2022/06/04 04:00:39;;;;;;;14.10;7.07;;;10.00;99.90;;;;;;5033037;28;20116;-87
2022/06/04 04:03:17;;;;;;;15.75;7.07;;;9.70;99.90;;;;;;5032964;28;20084;-88
2022/06/04 04:05:49;;;;;;;16.23;7.38;;;10.00;99.90;;;;;;5016270;28;20045;-88
2022/06/04 04:08:16;;;;;;;16.90;7.20;;;9.70;99.90;;;;;;5016279;28;20045;-88
2022/06/04 04:10:43;;;;;;;14.68;7.95;;;10.30;99.90;;;;;;5032896;28;20057;-88
2022/06/04 04:13:11;;;;;;;14.88;6.50;;;9.80;99.90;;;;;;5016569;28;20396;-88
2022/06/04 04:15:38;;;;;;;15.35;7.25;;;10.40;99.90;;;;;;5016264;28;20139;-88
2022/06/04 04:18:05;;;;;;;15.52;6.80;;;9.80;99.90;;;;;;5032996;28;20045;-88
2022/06/04 04:20:37;;;;;;;16.90;7.43;;;9.70;99.90;;;;;;5032386;28;20049;-88
2022/06/04 04:23:05;;;;;;;13.35;6.97;;;10.00;99.90;;;;;;5016097;28;20061;-88
2022/06/04 04:25:32;;;;;;;19.70;7.50;;;9.80;99.90;;;;;;5032884;28;20198;-88
2022/06/04 04:27:58;;;;;;;13.85;7.30;;;9.80;99.90;;;;;;5032662;28;20037;-88
2022/06/04 04:30:27;;;;;;;13.48;7.00;;;10.20;99.90;;;;;;5016241;28;20130;-89
2022/06/04 04:32:53;;;;;;;13.70;7.28;;;9.80;99.90;;;;;;5032465;28;20048;-88
2022/06/04 04:35:22;;;;;;;13.75;7.07;;;10.20;99.90;;;;;;5032647;28;20049;-88
2022/06/04 04:37:48;;;;;;;16.58;7.35;;;9.90;99.90;;;;;;5016380;28;20501;-89
2022/06/04 04:40:16;;;;;;;12.10;6.82;;;10.50;99.90;;;;;;5033091;28;20052;-88
2022/06/04 04:42:43;;;;;;;14.38;7.43;;;10.50;99.90;;;;;;5032544;28;20045;-88
2022/06/04 04:45:09;;;;;;;13.48;6.70;;;10.10;99.90;;;;;;5015988;28;20123;-88
2022/06/04 04:47:37;;;;;;;17.48;6.88;;;10.10;99.90;;;;;;5032036;28;20081;-88
2022/06/04 04:50:05;;;;;;;14.90;7.30;;;10.90;99.90;;;;;;5015761;28;20053;-88
2022/06/04 04:52:31;;;;;;;13.85;6.85;;;10.20;99.90;;;;;;5016199;28;20038;-88
2022/06/04 04:54:57;;;;;;;11.73;6.78;;;10.40;99.90;;;;;;5016435;28;20443;-88
2022/06/04 04:57:22;;;;;;;15.82;6.53;;;10.30;99.90;;;;;;5016191;28;20045;-88
2022/06/04 04:59:48;;;;;;;14.80;6.68;;;10.50;99.90;;;;;;5016252;28;20114;-88
2022/06/04 05:02:13;;;;;;;13.18;6.75;;;10.40;99.90;;;;;;5019782;28;20061;-88
2022/06/04 05:04:39;;;;;;;12.80;6.05;;;10.50;99.90;;;;;;5020132;28;20053;-88
2022/06/04 05:07:05;;;;;;;12.93;6.88;;;10.60;99.90;;;;;;5019599;28;20507;-88
2022/06/04 05:09:31;;;;;;;14.75;6.20;;;11.20;99.90;;;;;;5036570;28;20037;-88
2022/06/04 05:11:56;;;;;;;12.27;5.75;;;11.10;99.90;;;;;;5038388;28;20045;-88
2022/06/04 05:14:22;;;;;;;11.80;6.32;;;10.80;99.90;;;;;;5021056;28;20079;-88
2022/06/04 05:16:48;;;;;;;11.90;6.07;;;10.80;99.90;;;;;;5036823;28;20044;-88
2022/06/04 05:19:19;;;;;;;12.00;5.40;;;11.00;99.90;;;;;;5020680;28;20107;-88
2022/06/04 05:21:48;;;;;;;13.68;6.40;;;11.60;99.90;;;;;;5020961;28;20060;-88
2022/06/04 05:24:24;;;;;;;10.90;5.55;;;11.50;99.90;;;;;;5021327;28;20143;-88
2022/06/04 05:26:50;;;;;;;9.77;5.82;;;11.70;99.90;;;;;;5042696;28;20048;-88
2022/06/04 05:29:17;;;;;;;12.80;5.70;;;11.70;99.90;;;;;;5021144;28;20045;-88
2022/06/04 05:31:45;;;;;;;14.05;6.10;;;11.30;99.90;;;;;;5020096;28;20049;-88
2022/06/04 05:34:20;;;;;;;10.68;5.35;;;11.30;99.90;;;;;;5056239;23;20045;-90
2022/06/04 05:36:47;;;;;;;10.48;5.50;;;11.40;99.90;;;;;;5057106;28;20079;-90
2022/06/04 05:39:14;;;;;;;10.18;5.10;;;11.60;99.90;;;;;;5057366;28;20124;-87
2022/06/04 05:41:40;;;;;;;10.52;5.40;;;11.70;99.90;;;;;;5057443;28;20408;-86
2022/06/04 05:44:21;;;;;;;11.85;5.38;;;11.70;99.90;;;;;;5040774;28;20395;-88
2022/06/04 05:46:47;;;;;;;12.70;5.53;;;11.80;99.90;;;;;;5055627;28;20122;-88
2022/06/04 05:49:15;;;;;;;9.43;5.03;;;11.80;99.90;;;;;;5039755;28;20087;-87
2022/06/04 05:51:43;;;;;;;11.75;5.30;;;12.70;99.90;;;;;;5039530;28;20072;-88
2022/06/04 05:54:09;;;;;;;10.07;5.07;;;12.20;99.90;;;;;;5055758;28;20049;-88
2022/06/04 05:56:39;;;;;;;9.20;5.13;;;12.30;99.90;;;;;;5039294;28;20037;-87
2022/06/04 05:59:09;;;;;;;9.27;4.57;;;12.40;99.90;;;;;;5055788;28;20088;-88
2022/06/04 06:01:38;;;;;;;9.25;5.22;;;12.40;99.90;;;;;;5039127;28;20076;-87
2022/06/04 06:04:08;;;;;;;9.23;4.65;;;13.20;99.90;;;;;;5055796;28;20387;-88
2022/06/04 06:06:37;;;;;;;7.68;4.28;;;13.10;99.90;;;;;;5055474;28;20135;-88
2022/06/04 06:09:06;;;;;;;8.50;4.90;;;12.80;99.90;;;;;;5044770;28;20048;-87
2022/06/04 06:11:32;;;;;;;8.30;4.45;;;13.00;99.90;;;;;;5047173;28;20049;-87
2022/06/04 06:13:59;;;;;;;8.18;4.32;;;12.70;99.90;;;;;;5056051;28;20132;-87
2022/06/04 06:16:32;;;;;;;8.13;4.10;;;12.80;99.90;;;;;;5055451;28;20075;-89
2022/06/04 06:18:58;;;;;;;8.68;4.90;;;12.80;99.90;;;;;;5039469;28;20365;-88
2022/06/04 06:21:44;;;;;;;10.07;4.80;;;13.10;99.90;;;;;;5038692;28;20477;-88
2022/06/04 06:24:11;;;;;;;6.85;4.50;;;12.80;99.90;;;;;;5055194;28;20049;-88
2022/06/04 06:26:43;;;;;;;9.02;4.72;;;12.80;99.90;;;;;;5038597;28;20048;-88
2022/06/04 06:29:09;;;;;;;10.00;4.70;;;13.00;99.90;;;;;;5038024;28;20392;-87
2022/06/04 06:31:36;;;;;;;8.38;4.63;;;13.10;99.90;;;;;;5038112;28;20132;-88
2022/06/04 06:34:02;;;;;;;8.45;4.88;;;13.90;99.90;;;;;;5037899;28;20060;-88
2022/06/04 06:36:29;;;;;;;7.60;4.40;;;13.50;99.90;;;;;;5038057;28;20396;-88
2022/06/04 06:38:55;;;;;;;10.68;4.95;;;13.60;99.90;;;;;;5038019;28;20040;-85
2022/06/04 06:41:23;;;;;;;8.00;4.15;;;13.60;99.90;;;;;;5054519;28;20044;-88
2022/06/04 06:43:50;;;;;;;8.23;4.28;;;13.70;99.90;;;;;;5037877;28;20048;-89
2022/06/04 06:46:25;;;;;;;8.90;4.45;;;13.80;99.90;;;;;;5038023;28;20383;-87
2022/06/04 06:48:55;;;;;;;7.07;4.40;;;13.90;99.90;;;;;;5037922;28;20076;-88
2022/06/04 06:51:26;;;;;;;9.15;4.78;;;14.00;99.90;;;;;;5037382;28;20041;-87
2022/06/04 06:53:54;;;;;;;7.65;3.80;;;14.50;99.90;;;;;;5054218;28;20072;-88
2022/06/04 06:56:29;;;;;;;7.40;4.15;;;14.50;99.90;;;;;;5037778;28;20052;-85
2022/06/04 06:58:55;;;;;;;;;;;14.30;99.90;;;;;;5037927;28;20095;-88
2022/06/04 07:01:22;;;;;;;7.05;3.88;;;14.30;99.90;;;;;;5054163;28;19920;-88
2022/06/04 07:03:51;;;;;;;8.10;3.97;;;14.30;99.90;;;;;;5037544;28;20044;-89
2022/06/04 07:06:41;;;;;;;7.97;3.97;;;14.70;99.90;;;;;;5037296;28;20045;-87
2022/06/04 07:09:12;;;;;;;7.82;4.05;;;14.50;99.90;;;;;;4997304;28;20062;-88
2022/06/04 07:11:38;;;;;;;8.63;3.72;;;14.70;99.90;;;;;;4996846;28;20088;-88
2022/06/04 07:14:03;;;;;;;6.35;3.58;;;14.70;99.90;;;;;;4980850;28;20061;-88
2022/06/04 07:16:29;;;;;;;6.03;3.70;;;14.80;99.90;;;;;;4980635;28;20394;-88
2022/06/04 07:18:55;;;;;;;7.10;3.55;;;14.90;99.90;;;;;;4980987;28;20482;-88
2022/06/04 07:21:21;;;;;;;6.88;3.70;;;15.00;99.90;;;;;;4997087;28;20049;-87
2022/06/04 07:23:47;;;;;;;5.68;3.78;;;15.10;99.90;;;;;;4996011;28;20042;-88
2022/06/04 07:26:13;;;;;;;7.45;3.50;;;15.30;99.90;;;;;;4996972;28;20486;-88
2022/06/04 07:28:40;;;;;;;7.15;3.72;;;15.40;99.90;;;;;;4980686;28;20042;-88
2022/06/04 07:31:08;;;;;;;6.13;3.80;;;15.30;99.90;;;;;;4980439;28;20136;-85
2022/06/04 07:33:33;;;;;;;7.65;3.63;;;15.40;99.90;;;;;;5013212;28;20149;-87
2022/06/04 07:36:05;;;;;;;5.90;3.75;;;15.40;99.90;;;;;;4996363;28;20050;-87
2022/06/04 07:38:30;;;;;;;6.10;3.75;;;15.40;99.90;;;;;;4996700;28;20132;-87
2022/06/04 07:40:56;;;;;;;5.40;3.75;;;15.40;99.90;;;;;;4980242;28;20204;-85
2022/06/04 07:43:22;;;;;;;8.43;4.00;;;15.50;99.90;;;;;;4996489;28;20045;-89
2022/06/04 07:45:47;;;;;;;7.10;3.92;;;15.60;99.90;;;;;;5000395;28;20059;-89
2022/06/04 07:48:13;;;;;;;7.13;3.83;;;15.70;99.90;;;;;;5036678;28;20048;-87
2022/06/04 07:50:39;;;;;;;6.65;3.85;;;15.70;99.90;;;;;;5036629;28;20049;-88
2022/06/04 07:53:06;;;;;;;6.53;3.53;;;15.70;99.90;;;;;;5037355;28;20090;-88
2022/06/04 07:55:32;;;;;;;7.10;3.55;;;15.80;99.90;;;;;;5036839;28;20045;-89
2022/06/04 07:57:57;;;;;;;5.47;3.40;;;15.90;99.90;;;;;;5036741;28;20090;-84
2022/06/04 08:00:24;;;;;;;6.28;3.80;;;15.90;99.90;;;;;;5036420;28;20033;-86
2022/06/04 08:02:51;;;;;;;4.93;3.00;;;16.10;99.90;;;;;;5037794;28;20072;-89
2022/06/04 08:05:17;;;;;;;5.20;3.30;;;16.10;99.90;;;;;;5037722;28;20079;-88
2022/06/04 08:07:43;;;;;;;6.00;3.72;;;16.20;99.90;;;;;;5037206;28;20044;-87
2022/06/04 08:10:10;;;;;;;4.90;3.42;;;16.40;99.90;;;;;;5038960;28;20048;-87
2022/06/04 08:12:51;;;;;;;5.45;3.30;;;16.40;99.90;;;;;;5053592;28;20052;-87
2022/06/04 08:15:16;;;;;;;6.25;3.83;;;16.50;99.90;;;;;;5037055;28;20113;-87
2022/06/04 08:17:42;;;;;;;6.80;3.60;;;16.50;99.90;;;;;;5053206;28;20492;-87
2022/06/04 08:20:10;;;;;;;5.57;3.58;;;16.60;99.90;;;;;;5039711;28;20033;-87
2022/06/04 08:22:36;;;;;;;7.45;3.60;;;16.60;99.90;;;;;;5056424;28;20485;-87
2022/06/04 08:25:02;;;;;;;5.60;3.50;;;16.60;99.90;;;;;;5064484;28;20104;-87
2022/06/04 08:27:27;;;;;;;8.70;3.80;;;16.60;99.90;;;;;;5064650;28;20059;-87
2022/06/04 08:29:53;;;;;;;6.50;3.40;;;16.70;99.90;;;;;;5059346;28;20052;-88
2022/06/04 08:32:19;;;;;;;5.38;3.92;;;16.90;99.90;;;;;;5038517;28;20472;-87
2022/06/04 08:34:49;;;;;;;6.72;4.00;;;17.20;99.90;;;;;;5036248;28;20396;-88
2022/06/04 08:37:16;;;;;;;7.05;3.65;;;17.30;99.90;;;;;;5035886;28;20037;-88
2022/06/04 08:39:42;;;;;;;6.95;3.60;;;17.50;99.90;;;;;;5036291;28;20052;-88
2022/06/04 08:42:10;;;;;;;5.53;3.85;;;17.70;99.90;;;;;;5035931;28;20400;-88
2022/06/04 08:44:58;;;;;;;4.95;3.20;;;17.80;99.90;;;;;;5052740;28;20040;-88
2022/06/04 08:47:45;;;;;;;5.07;3.50;;;17.90;99.90;;;;;;5035824;28;20374;-88
2022/06/04 08:50:21;;;;;;;5.40;3.20;;;18.00;99.90;;;;;;5035647;28;20389;-88
2022/06/04 08:52:54;;;;;;;5.90;3.33;;;18.10;99.90;;;;;;5037390;28;20036;-87
2022/06/04 08:58:52;;;;;;;6.78;3.42;;;18.20;99.90;;;;;;5054219;28;20084;-88
2022/06/04 09:01:25;;;;;;;5.38;3.30;;;18.40;99.90;;;;;;5053691;28;20166;-89
2022/06/04 09:04:21;;;;;;;6.63;3.60;;;18.60;99.90;;;;;;5053948;28;20049;-88
2022/06/04 09:07:17;;;;;;;5.65;3.35;;;18.70;99.90;;;;;;5037154;28;20045;-87
2022/06/04 09:09:55;;;;;;;5.70;3.70;;;18.80;99.90;;;;;;5037116;28;20538;-87
2022/06/04 09:12:45;;;;;;;5.93;3.30;;;18.90;99.90;;;;;;5037112;28;20420;-88
2022/06/04 09:15:14;;;;;;;7.47;3.70;;;18.90;99.90;;;;;;5037055;28;20045;-88
2022/06/04 09:17:44;;;;;;;6.47;3.53;;;19.10;99.90;;;;;;5036535;28;20037;-88
2022/06/04 09:20:40;;;;;;;6.97;3.67;;;19.20;99.90;;;;;;5036846;28;20427;-88
2022/06/04 09:23:18;;;;;;;7.93;4.13;;;19.30;99.90;;;;;;5052486;28;20029;-88
2022/06/04 09:25:51;;;;;;;5.68;3.67;;;19.30;99.90;;;;;;5053453;28;20396;-88
2022/06/04 09:28:38;;;;;;;5.18;3.47;;;19.30;99.90;;;;;;5053556;28;20051;-88
2022/06/04 09:31:10;;;;;;;6.70;3.40;;;19.50;99.90;;;;;;5053298;28;20061;-87
2022/06/04 09:33:55;;;;;;;5.03;3.40;;;19.60;99.90;;;;;;5036195;28;20052;-88
2022/06/04 09:36:29;;;;;;;5.88;3.35;;;19.60;99.90;;;;;;5035979;28;20182;-88
2022/06/04 09:39:03;;;;;;;5.72;3.47;;;19.40;99.90;;;;;;5037038;28;20045;-88
2022/06/04 09:41:31;;;;;;;5.88;3.38;;;19.10;99.90;;;;;;5052505;28;20049;-87
2022/06/04 09:44:05;;;;;;;5.55;3.58;;;18.90;99.90;;;;;;5052484;28;20055;-88
2022/06/04 09:46:32;;;;;;;8.77;3.55;;;18.80;99.90;;;;;;5037267;28;20045;-88
2022/06/04 09:48:59;;;;;;;6.20;3.65;;;18.70;99.90;;;;;;5040579;28;20377;-88
2022/06/04 09:51:41;;;;;;;6.68;3.38;;;18.40;99.90;;;;;;5039228;28;20045;-87
2022/06/04 09:54:21;;;;;;;4.78;3.08;;;18.20;99.90;;;;;;5039135;28;20044;-84
2022/06/04 09:56:52;;;;;;;6.75;3.78;;;18.00;99.90;;;;;;5055646;28;20068;-86
2022/06/04 09:59:28;;;;;;;6.90;3.40;;;17.80;99.90;;;;;;5055479;28;20396;-85
2022/06/04 10:02:09;;;;;;;6.13;3.83;;;18.00;99.90;;;;;;5038536;28;20086;-86
2022/06/04 10:04:46;;;;;;;6.00;3.90;;;18.30;99.90;;;;;;5038512;28;20077;-86
2022/06/04 10:07:14;;;;;;;6.57;3.50;;;18.70;99.90;;;;;;5055040;28;20037;-87
2022/06/04 10:09:57;;;;;;;7.75;3.50;;;19.10;99.90;;;;;;5055031;28;20057;-87
2022/06/04 10:15:47;;;;;;;6.80;3.45;;;20.00;99.90;;;;;;4979025;28;20517;-85
2022/06/04 10:18:22;;;;;;;5.45;3.45;;;20.20;99.90;;;;;;4979314;28;20050;-87
2022/06/04 10:21:08;;;;;;;;;;;20.10;99.90;;;;;;4979155;28;20050;-87
2022/06/04 10:23:51;;;;;;;5.32;3.85;;;20.00;99.90;;;;;;4996564;28;19926;-87
2022/06/04 10:26:25;;;;;;;6.63;3.70;;;20.10;99.90;;;;;;4978650;28;20062;-87
2022/06/04 10:29:30;;;;;;;5.90;3.22;;;20.10;99.90;;;;;;4978793;28;20157;-87
2022/06/04 10:32:26;;;;;;;7.50;4.00;;;20.20;99.90;;;;;;4959034;28;20155;-87
2022/06/04 10:35:07;;;;;;;5.63;3.45;;;20.40;99.90;;;;;;4958818;28;20059;-87
2022/06/04 10:37:36;;;;;;;6.60;3.35;;;20.50;99.90;;;;;;4959736;28;20552;-86
2022/06/04 10:40:21;;;;;;;5.30;3.42;;;20.40;99.90;;;;;;4958831;28;20175;-86
2022/06/04 10:43:23;;;;;;;5.03;3.20;;;20.20;99.90;;;;;;4959168;28;20093;-86
2022/06/04 10:46:13;;;;;;;6.65;2.78;;;20.10;99.90;;;;;;4950709;28;20181;-84
2022/06/04 10:49:13;;;;;;;6.28;2.95;;;20.20;99.90;;;;;;4963237;28;20089;-87
2022/06/04 10:51:57;;;;;;;5.88;3.13;;;20.20;99.90;;;;;;4942948;28;20047;-87
2022/06/04 10:54:43;;;;;;;5.60;2.80;;;20.10;99.90;;;;;;4958758;28;20086;-84
2022/06/04 10:57:11;;;;;;;7.60;3.10;;;19.80;99.90;;;;;;4942865;28;20442;-86
2022/06/04 11:00:04;;;;;;;4.95;2.80;;;19.80;99.90;;;;;;4942236;28;20043;-87
2022/06/04 11:02:35;;;;;;;5.10;2.97;;;19.50;99.90;;;;;;4942563;28;20437;-87
2022/06/04 11:05:12;;;;;;;5.13;2.92;;;19.40;99.90;;;;;;4959858;28;20050;-86
2022/06/04 11:07:41;;;;;;;5.57;2.53;;;19.40;99.90;;;;;;4958338;28;20158;-87
2022/06/04 11:10:15;;;;;;;5.05;2.67;;;19.60;99.90;;;;;;4995596;28;20057;-86
2022/06/04 11:12:47;;;;;;;5.00;3.03;;;19.70;99.90;;;;;;4981518;28;20438;-87
2022/06/04 11:15:24;;;;;;;7.15;2.88;;;20.00;99.90;;;;;;5013981;28;20532;-87
2022/06/04 11:17:53;;;;;;;6.85;2.63;;;20.10;99.90;;;;;;4981160;28;20129;-87
2022/06/04 11:20:22;;;;;;;5.35;3.20;;;20.20;99.90;;;;;;5013396;28;20038;-87
2022/06/04 11:22:58;;;;;;;4.88;2.88;;;20.20;99.90;;;;;;5038372;28;20139;-87
2022/06/04 11:25:28;;;;;;;5.32;3.08;;;20.20;99.90;;;;;;5037988;28;20376;-87
2022/06/04 11:28:03;;;;;;;4.95;2.78;;;20.20;99.90;;;;;;5053791;28;20080;-87
2022/06/04 11:30:46;;;;;;;6.10;2.63;;;20.20;99.90;;;;;;5036862;28;20484;-87
2022/06/04 11:33:38;;;;;;;5.38;2.90;;;20.40;99.90;;;;;;5036703;28;20041;-86
2022/06/04 11:36:28;;;;;;;4.22;2.50;;;20.60;99.90;;;;;;5053223;28;20079;-87
2022/06/04 11:39:22;;;;;;;5.03;2.72;;;20.40;99.90;;;;;;5037128;28;20127;-87
2022/06/04 11:42:06;;;;;;;5.18;2.65;;;20.40;99.90;;;;;;5053556;28;20049;-87
2022/06/04 11:44:55;;;;;;;6.50;3.30;;;20.50;99.90;;;;;;5053236;28;20041;-87
2022/06/04 11:47:48;;;;;;;5.40;2.50;;;20.80;99.90;;;;;;5053203;28;20045;-88
2022/06/04 11:50:38;;;;;;;4.05;2.63;;;20.70;99.90;;;;;;4995749;28;20145;-87
2022/06/04 11:53:23;;;;;;;4.85;2.95;;;20.80;99.90;;;;;;4996164;28;20593;-87
2022/06/04 11:55:58;;;;;;;4.38;2.67;;;21.20;99.90;;;;;;4979813;28;20054;-87
2022/06/04 11:58:38;;;;;;;5.43;3.00;;;21.80;99.90;;;;;;4980249;28;20097;-87
2022/06/04 12:01:15;;;;;;;5.25;2.90;;;22.30;99.90;;;;;;4996060;28;20050;-88
2022/06/04 12:03:47;;;;;;;6.63;2.88;;;22.50;99.90;;;;;;4979923;28;20048;-88
2022/06/04 12:06:39;;;;;;;5.60;2.63;;;22.80;99.90;;;;;;4995800;28;20180;-87
2022/06/04 12:09:07;;;;;;;5.50;2.38;;;23.00;99.90;;;;;;4995607;28;20046;-87
2022/06/04 12:11:33;;;;;;;4.38;2.53;;;23.20;99.90;;;;;;4995791;28;20041;-88
2022/06/04 12:14:20;;;;;;;4.35;2.60;;;23.30;99.90;;;;;;4995949;28;20058;-87
2022/06/04 12:17:11;;;;;;;4.50;2.50;;;23.50;99.90;;;;;;4996695;28;20133;-88
2022/06/04 12:25:38;;;;;;;5.40;2.20;;;23.50;99.90;;;;;;4995781;28;20050;-88
2022/06/04 12:28:28;;;;;;;4.45;2.47;;;23.70;99.90;;;;;;5048609;28;20052;-87
2022/06/04 12:30:54;;;;;;;4.18;2.40;;;24.00;99.90;;;;;;5052619;28;20045;-87
2022/06/04 12:33:24;;;;;;;3.95;2.60;;;23.90;99.90;;;;;;5053158;28;20033;-87
2022/06/04 12:36:11;;;;;;;6.07;3.00;;;23.30;99.90;;;;;;5036216;28;20053;-87
2022/06/04 12:38:40;;;;;;;5.93;2.80;;;22.70;99.90;;;;;;5035873;28;20098;-87
2022/06/04 12:41:15;;;;;;;4.25;2.95;;;22.30;99.90;;;;;;5035784;28;20056;-87
2022/06/04 12:43:44;;;;;;;4.43;2.83;;;22.00;99.90;;;;;;5052514;28;20062;-86
2022/06/04 12:46:15;;;;;;;5.40;3.13;;;21.70;99.90;;;;;;5052362;28;20052;-87
2022/06/04 12:49:17;;;;;;;5.70;2.78;;;21.60;99.90;;;;;;5052174;28;20052;-87
2022/06/04 12:52:06;;;;;;;5.45;3.05;;;21.30;99.90;;;;;;5035784;28;20044;-86
2022/06/04 12:54:49;;;;;;;5.38;3.10;;;21.30;99.90;;;;;;5052136;28;20513;-87
2022/06/04 12:57:40;;;;;;;5.13;2.90;;;21.20;99.90;;;;;;5035514;28;20492;-84
2022/06/04 13:00:22;;;;;;;5.50;3.45;;;21.30;99.90;;;;;;5052204;28;20179;-87
2022/06/04 13:03:15;;;;;;;5.32;2.85;;;21.30;99.90;;;;;;5052444;28;20102;-87
2022/06/04 13:05:59;;;;;;;5.22;2.83;;;21.20;99.90;;;;;;5054547;28;20045;-86
2022/06/04 13:08:38;;;;;;;4.93;3.00;;;21.40;99.90;;;;;;5037383;28;20045;-87
2022/06/04 13:11:10;;;;;;;4.97;2.88;;;21.50;99.90;;;;;;5035721;28;20479;-87
2022/06/04 13:14:08;;;;;;;5.60;3.00;;;21.60;99.90;;;;;;5052724;28;20080;-88
2022/06/04 13:16:49;;;;;;;5.63;3.38;;;22.00;99.90;;;;;;5036531;28;20490;-86
2022/06/04 13:19:46;;;;;;;5.43;2.97;;;22.60;99.90;;;;;;5035962;28;20095;-87
2022/06/04 13:22:20;;;;;;;4.25;2.50;;;23.10;99.90;;;;;;5054448;28;20057;-86
2022/06/04 13:24:47;;;;;;;5.55;3.38;;;23.40;99.90;;;;;;5039042;28;20037;-86
2022/06/04 13:27:18;;;;;;;6.00;2.75;;;23.80;99.90;;;;;;5039840;28;20048;-86
2022/06/04 13:29:45;;;;;;;6.32;3.10;;;24.10;99.90;;;;;;5056080;28;20056;-88
2022/06/04 13:32:17;;;;;;;4.57;3.10;;;23.70;99.90;;;;;;5056222;28;20098;-88
2022/06/04 13:34:44;;;;;;;6.22;3.20;;;23.80;99.90;;;;;;5038958;28;20053;-88